Dyess AFB, Texas
Current Conditions -  °F | °C
As of 4:58 PM on Saturday 20 Dec 2014 (Local Time) from KDYS Reporting Station
Overcast Overcast  
Wind Chill: 11°   Ceiling: 2900
Heat Index: 11°   Visibility: 10mi
Dew Point:   Wind: 6mph
Humidity: 63%   Direction: 180°S
Pressure: 30.09"   Gusts: NA
Location:  32.42°N, 99.82°W
Report Text: KDYS 202258Z AUTO 18005KT 10SM OVC029 11/04 A3009 RMK AO2 SLP184 T01100041 $
Loading
Personal Weather Stations






























Interactive Weather Map New forecast layout! Learn more

10-Day Weather Forecast

Advertisements
Track Severe Weather on mobile